Mont Saint Michel — FNMT — position and weather

sailwx.info

Track history (hours):
 
Tides and Currents Weather Stations Pressure Air Temp Water Temp Dewpoint Dewpoint Depression Visibility Wind Speed Wind Dir Waves Ship Positions

Mont Saint Michel

Last reported at 2018-Aug-18 00:10 UTC. Time now 2018-Aug-18 00:48 UTC.
Position N 50°22' W 000°53'.

Length 173 m; beam 29 m.

Type: Ship. MMSI: 227023100.

Date/timePositionNaut miles runAvg speedWind from/ knotsBaromVisibWave heightAir tempDewpointWater temp
2018-Aug-18 00:10N 50°22' W 000°53'215.6
2018-Aug-18 00:00N 50°24' W 000°53'815.8
2018-Aug-17 23:30N 50°32' W 000°56'815.2
2018-Aug-17 23:00N 50°39' W 000°58'5 9.7
2018-Aug-17 22:31N 50°44' W 001°02'611.1
2018-Aug-17 22:00N 50°48' W 001°07'1 1.4
2018-Aug-17 21:30N 50°49' W 001°06'0 0.0
2018-Aug-17 21:00N 50°49' W 001°06'0 0.0
2018-Aug-17 20:30N 50°49' W 001°06'0 0.6
2018-Aug-17 20:00N 50°49' W 001°06'611.2
2018-Aug-17 19:30N 50°44' W 001°02'815.7
2018-Aug-17 19:00N 50°36' W 000°57'1019.6
2018-Aug-17 18:30N 50°27' W 000°52'919.1
2018-Aug-17 18:01N 50°19' W 000°46'1020.0
2018-Aug-17 17:31N 50°09' W 000°39'1019.9
2018-Aug-17 17:01N 50°00' W 000°33'1019.7
2018-Aug-17 16:31N 49°51' W 000°28'1019.4
2018-Aug-17 16:01N 49°42' W 000°23'1019.2
2018-Aug-17 15:30N 49°33' W 000°18'918.6
2018-Aug-17 15:01N 49°24' W 000°15'6 6.5
2018-Aug-17 14:00N 49°17' W 000°15'0 0.0
2018-Aug-17 13:30N 49°17' W 000°15'0 0.0
2018-Aug-17 13:00N 49°17' W 000°15'3 7.0
2018-Aug-17 12:30N 49°21' W 000°14'1019.7
2018-Aug-17 12:00N 49°30' W 000°18'1019.7
2018-Aug-17 11:30N 49°39' W 000°25'1020.0
2018-Aug-17 11:00N 49°48' W 000°33'1019.8
2018-Aug-17 10:30N 49°56' W 000°40'1019.3
2018-Aug-17 10:00N 50°05' W 000°47'1820.3
2018-Aug-17 09:07N 50°23' W 000°53'320.6
2018-Aug-17 08:58N 50°26' W 000°54'920.0
2018-Aug-17 08:30N 50°35' W 000°58'917.6
2018-Aug-17 08:00N 50°43' W 001°01'612.6
2018-Aug-17 07:30N 50°49' W 001°06'0 0.3
2018-Aug-17 07:00N 50°49' W 001°06'0 0.0
2018-Aug-17 06:30N 50°49' W 001°06'0 0.0
2018-Aug-17 06:00N 50°49' W 001°06'0 0.4
2018-Aug-17 05:31N 50°49' W 001°06'4 8.6
2018-Aug-17 05:00N 50°45' W 001°05'815.9
2018-Aug-17 04:30N 50°38' W 000°58'815.8
2018-Aug-17 04:00N 50°30' W 000°54'1813.2
2018-Aug-17 02:40N 50°14' W 000°43'211.4
2018-Aug-17 02:31N 50°12' W 000°42'611.3
2018-Aug-17 02:00N 50°07' W 000°39'611.2
2018-Aug-17 01:31N 50°02' W 000°36'611.0
2018-Aug-17 01:00N 49°56' W 000°34'511.1
2018-Aug-17 00:31N 49°51' W 000°32'611.4
2018-Aug-16 23:59N 49°45' W 000°30'510.5
2018-Aug-16 23:30N 49°41' W 000°26'511.0
2018-Aug-16 23:00N 49°36' W 000°22'510.7
2018-Aug-16 22:31N 49°31' W 000°20'510.4
2018-Aug-16 22:00N 49°26' W 000°18'510.3
2018-Aug-16 21:30N 49°21' W 000°15'3 7.0
2018-Aug-16 21:00N 49°17' W 000°15'0 0.0
2018-Aug-16 20:30N 49°17' W 000°15'0 0.0
2018-Aug-16 20:00N 49°17' W 000°15'0 0.0
2018-Aug-16 19:31N 49°17' W 000°15'4 7.3
2018-Aug-16 19:00N 49°21' W 000°14'918.7
2018-Aug-16 18:31N 49°30' W 000°20'918.1
2018-Aug-16 18:00N 49°38' W 000°24'918.2
2018-Aug-16 17:31N 49°47' W 000°27'918.1
2018-Aug-16 17:00N 49°56' W 000°31'918.2
2018-Aug-16 16:30N 50°05' W 000°36'918.9
2018-Aug-16 16:00N 50°13' W 000°41'1020.5
2018-Aug-16 15:30N 50°23' W 000°48'1020.8
2018-Aug-16 15:00N 50°32' W 000°54'1019.6
2018-Aug-16 14:30N 50°41' W 001°00'815.8
2018-Aug-16 14:00N 50°48' W 001°07'1 2.1
2018-Aug-16 13:30N 50°49' W 001°06'0 0.0
2018-Aug-16 13:00N 50°49' W 001°06'0 0.0
2018-Aug-16 12:30N 50°49' W 001°06'0 0.9
2018-Aug-16 12:00N 50°49' W 001°07'612.5
2018-Aug-16 11:30N 50°43' W 001°01'816.5
2018-Aug-16 11:00N 50°36' W 000°57'816.2
2018-Aug-16 10:30N 50°29' W 000°49'1018.2
2018-Aug-16 09:56N 50°19' W 000°45'919.9
2018-Aug-16 09:30N 50°11' W 000°41'1020.1
2018-Aug-16 09:00N 50°01' W 000°36'1020.3
2018-Aug-16 08:30N 49°51' W 000°32'1020.3
2018-Aug-16 08:00N 49°42' W 000°27'1020.5
2018-Aug-16 07:31N 49°32' W 000°21'1020.3
2018-Aug-16 07:01N 49°23' W 000°16'510.8
2018-Aug-16 06:30N 49°17' W 000°15'0 0.0
2018-Aug-16 06:01N 49°17' W 000°15'0 0.0
2018-Aug-16 05:30N 49°17' W 000°15'0 0.0
2018-Aug-16 05:00N 49°17' W 000°15'0 0.2
2018-Aug-16 04:30N 49°17' W 000°15'612.6
2018-Aug-16 04:00N 49°24' W 000°16'510.7
2018-Aug-16 03:30N 49°29' W 000°19'511.0
2018-Aug-16 03:00N 49°34' W 000°22'611.1
2018-Aug-16 02:30N 49°39' W 000°25'713.4
2018-Aug-16 02:01N 49°46' W 000°27'714.6
2018-Aug-16 01:30N 49°53' W 000°31'714.7
2018-Aug-16 01:00N 49°60' W 000°33'714.7
2018-Aug-16 00:30N 50°07' W 000°37'815.3
2018-Aug-15 23:58N 50°14' W 000°43'715.5
2018-Aug-15 23:30N 50°21' W 000°47'714.8
2018-Aug-15 23:00N 50°28' W 000°51'815.2
2018-Aug-15 22:30N 50°35' W 000°56'714.1
2018-Aug-15 22:01N 50°41' W 000°58'714.1
2018-Aug-15 21:30N 50°47' W 001°06'2 4.3
2018-Aug-15 21:00N 50°49' W 001°06'0 0.0
2018-Aug-15 20:30N 50°49' W 001°06'0 0.0
2018-Aug-15 20:00N 50°49' W 001°06'0 0.0
2018-Aug-15 19:30N 50°49' W 001°06'0 0.0
2018-Aug-15 19:00N 50°49' W 001°06'0 0.0
2018-Aug-15 18:30N 50°49' W 001°06'1 2.0
2018-Aug-15 18:00N 50°48' W 001°07'612.9
2018-Aug-15 17:30N 50°43' W 001°01'815.9
2018-Aug-15 17:00N 50°35' W 000°57'917.2
2018-Aug-15 16:30N 50°27' W 000°52'816.8
2018-Aug-15 16:00N 50°20' W 000°46'917.7
2018-Aug-15 15:30N 50°12' W 000°38'917.5
2018-Aug-15 15:00N 50°04' W 000°32'917.4
2018-Aug-15 14:30N 49°57' W 000°26'917.1
2018-Aug-15 14:00N 49°48' W 000°23'816.9
2018-Aug-15 13:30N 49°40' W 000°21'816.9
2018-Aug-15 13:00N 49°32' W 000°19'816.5
2018-Aug-15 12:30N 49°24' W 000°16'612.7
2018-Aug-15 12:00N 49°17' W 000°15'0 0.0
2018-Aug-15 11:30N 49°17' W 000°15'0 0.0
2018-Aug-15 11:00N 49°17' W 000°15'0 0.0
2018-Aug-15 10:30N 49°17' W 000°15'0 0.0
2018-Aug-15 10:00N 49°17' W 000°15'0 0.0
2018-Aug-15 09:30N 49°17' W 000°15'0 0.0
2018-Aug-15 09:00N 49°17' W 000°15'0 0.0
2018-Aug-15 08:29N 49°17' W 000°15'0 0.0
2018-Aug-15 08:00N 49°17' W 000°15'0 0.0
2018-Aug-15 07:30N 49°17' W 000°15'0 0.0
2018-Aug-15 07:00N 49°17' W 000°15'0 0.0
2018-Aug-15 06:30N 49°17' W 000°15'0 0.0
2018-Aug-15 06:00N 49°17' W 000°15'0 0.0
2018-Aug-15 05:30N 49°17' W 000°15'3 5.8
2018-Aug-15 05:00N 49°20' W 000°14'815.3
2018-Aug-15 04:30N 49°28' W 000°16'815.4
2018-Aug-15 04:00N 49°35' W 000°22'815.4
2018-Aug-15 03:30N 49°41' W 000°27'713.5
2018-Aug-15 03:00N 49°48' W 000°31'611.9
2018-Aug-15 02:30N 49°54' W 000°33'612.3
2018-Aug-15 02:00N 49°59' W 000°36'612.5
2018-Aug-15 01:30N 50°05' W 000°39'714.4
2018-Aug-15 01:00N 50°12' W 000°44'1315.7
2018-Aug-15 00:11N 50°23' W 000°53'315.5
2018-Aug-15 00:00N 50°26' W 000°54'815.4
2018-Aug-14 23:30N 50°34' W 000°56'815.3
2018-Aug-14 23:00N 50°41' W 000°58'713.3
2018-Aug-14 22:30N 50°46' W 001°05'3 5.4
2018-Aug-14 22:00N 50°49' W 001°06'0 0.0
2018-Aug-14 21:31N 50°49' W 001°06'0 0.0
2018-Aug-14 21:00N 50°49' W 001°06'0 0.0
2018-Aug-14 20:30N 50°49' W 001°06'1 1.0
2018-Aug-14 20:00N 50°49' W 001°07'612.1
2018-Aug-14 19:31N 50°43' W 001°02'816.4
2018-Aug-14 19:00N 50°36' W 000°58'1018.7
2018-Aug-14 18:30N 50°26' W 000°54'918.5
2018-Aug-14 18:00N 50°18' W 000°49'1019.2
2018-Aug-14 17:31N 50°09' W 000°42'1019.5
2018-Aug-14 17:01N 50°00' W 000°36'1019.6
2018-Aug-14 16:30N 49°51' W 000°31'1019.7
2018-Aug-14 16:01N 49°42' W 000°26'1020.1
2018-Aug-14 15:31N 49°33' W 000°19'1019.7
2018-Aug-14 15:01N 49°23' W 000°15'612.2
2018-Aug-14 14:30N 49°17' W 000°15'0 0.0
2018-Aug-14 14:00N 49°17' W 000°15'0 0.0
2018-Aug-14 13:30N 49°17' W 000°15'0 0.0
2018-Aug-14 13:00N 49°17' W 000°15'3 5.8
2018-Aug-14 12:30N 49°20' W 000°14'917.7
2018-Aug-14 12:00N 49°29' W 000°17'917.4
2018-Aug-14 11:30N 49°37' W 000°21'918.0
2018-Aug-14 11:00N 49°45' W 000°27'919.0
2018-Aug-14 10:30N 49°53' W 000°36'1020.7
2018-Aug-14 10:00N 50°02' W 000°43'1020.1
2018-Aug-14 09:30N 50°12' W 000°47'1820.0
2018-Aug-14 08:36N 50°29' W 000°55'219.8
2018-Aug-14 08:30N 50°31' W 000°56'919.0
2018-Aug-14 08:00N 50°40' W 000°58'816.5
2018-Aug-14 07:30N 50°47' W 001°06'2 3.7
2018-Aug-14 07:00N 50°49' W 001°06'0 0.0
2018-Aug-14 06:30N 50°49' W 001°06'0 0.0
2018-Aug-14 06:00N 50°49' W 001°06'0 0.2
2018-Aug-14 05:31N 50°49' W 001°06'4 8.6
2018-Aug-14 05:00N 50°44' W 001°04'714.3
2018-Aug-14 04:30N 50°38' W 000°58'816.1
2018-Aug-14 04:00N 50°30' W 000°57'814.5
2018-Aug-14 03:28N 50°23' W 000°55'715.2
2018-Aug-14 03:00N 50°17' W 000°49'815.5
2018-Aug-14 02:30N 50°10' W 000°44'815.5
2018-Aug-14 02:00N 50°03' W 000°39'612.1
2018-Aug-14 01:30N 49°57' W 000°36'510.6
2018-Aug-14 01:00N 49°52' W 000°32'510.3
2018-Aug-14 00:30N 49°48' W 000°29'510.2
2018-Aug-14 00:00N 49°43' W 000°26'510.0
2018-Aug-13 23:30N 49°38' W 000°22'510.1
2018-Aug-13 23:01N 49°34' W 000°19'510.5
2018-Aug-13 22:31N 49°29' W 000°16'510.7
2018-Aug-13 22:01N 49°24' W 000°15'611.4
2018-Aug-13 21:30N 49°18' W 000°15'1 1.2
2018-Aug-13 21:00N 49°17' W 000°15'0 0.0
2018-Aug-13 20:30N 49°17' W 000°15'0 0.0
2018-Aug-13 20:00N 49°17' W 000°15'0 0.0
2018-Aug-13 19:30N 49°17' W 000°15'3 5.4
2018-Aug-13 19:00N 49°20' W 000°14'917.6
2018-Aug-13 18:30N 49°28' W 000°19'918.4
2018-Aug-13 18:00N 49°37' W 000°25'918.0
2018-Aug-13 17:30N 49°45' W 000°30'917.9
2018-Aug-13 17:00N 49°53' W 000°35'917.5
2018-Aug-13 16:30N 50°02' W 000°40'918.2
2018-Aug-13 16:00N 50°10' W 000°44'1019.9
2018-Aug-13 15:30N 50°20' W 000°49'1020.4
2018-Aug-13 15:00N 50°29' W 000°54'1020.1
2018-Aug-13 14:30N 50°39' W 000°59'918.3
2018-Aug-13 14:01N 50°47' W 001°06'2 3.7
2018-Aug-13 13:31N 50°49' W 001°06'0 0.0
2018-Aug-13 13:01N 50°49' W 001°06'0 0.0
2018-Aug-13 12:30N 50°49' W 001°06'0 0.7
2018-Aug-13 12:01N 50°49' W 001°06'612.7
2018-Aug-13 11:30N 50°43' W 001°02'1020.3
2018-Aug-13 11:00N 50°34' W 000°56'2220.7
2018-Aug-13 09:57N 50°13' W 000°46'920.4
2018-Aug-13 09:30N 50°04' W 000°42'1020.0
2018-Aug-13 09:00N 49°55' W 000°37'1019.6
2018-Aug-13 08:30N 49°45' W 000°32'1019.4
2018-Aug-13 08:00N 49°36' W 000°26'1019.4
2018-Aug-13 07:30N 49°28' W 000°19'918.2
2018-Aug-13 07:00N 49°19' W 000°15'2 3.6
2018-Aug-13 06:30N 49°17' W 000°15'0 0.0
2018-Aug-13 06:00N 49°17' W 000°15'0 0.0
2018-Aug-13 05:30N 49°17' W 000°15'0 0.0
2018-Aug-13 05:00N 49°17' W 000°15'0 0.5
2018-Aug-13 04:30N 49°18' W 000°15'713.1
2018-Aug-13 04:00N 49°24' W 000°17'815.9
2018-Aug-13 03:30N 49°31' W 000°22'816.0
2018-Aug-13 03:00N 49°38' W 000°27'815.6
2018-Aug-13 02:30N 49°46' W 000°32'715.0
2018-Aug-13 02:00N 49°53' W 000°36'815.2
2018-Aug-13 01:30N 50°00' W 000°38'1215.4
2018-Aug-13 00:45N 50°11' W 000°43'515.6
2018-Aug-13 00:26N 50°16' W 000°45'716.0
2018-Aug-12 23:59N 50°23' W 000°49'816.5
2018-Aug-12 23:30N 50°30' W 000°52'816.3
2018-Aug-12 23:00N 50°37' W 000°59'714.3
2018-Aug-12 22:31N 50°44' W 001°04'510.1
2018-Aug-12 22:00N 50°49' W 001°06'0 0.4
2018-Aug-12 21:30N 50°49' W 001°06'0 0.0
2018-Aug-12 21:00N 50°49' W 001°06'0 0.0
2018-Aug-12 20:30N 50°49' W 001°06'2 3.7
2018-Aug-12 20:01N 50°47' W 001°06'917.2
2018-Aug-12 19:31N 50°39' W 001°01'1121.9
2018-Aug-12 19:00N 50°28' W 001°03'1020.9
2018-Aug-12 18:31N 50°18' W 001°02'1121.3
2018-Aug-12 18:00N 50°08' W 000°56'1121.8
2018-Aug-12 17:31N 49°58' W 000°49'1122.2
2018-Aug-12 17:01N 49°48' W 000°40'1122.2
2018-Aug-12 16:30N 49°38' W 000°31'1122.1
2018-Aug-12 16:00N 49°29' W 000°23'1020.9
2018-Aug-12 15:31N 49°20' W 000°15'3 5.3
2018-Aug-12 15:00N 49°17' W 000°15'0 0.0
2018-Aug-12 14:30N 49°17' W 000°15'0 0.0
2018-Aug-12 14:00N 49°17' W 000°15'0 0.0
2018-Aug-12 13:30N 49°17' W 000°15'0 0.0
2018-Aug-12 13:00N 49°17' W 000°15'4 8.8
2018-Aug-12 12:31N 49°22' W 000°14'1020.3
2018-Aug-12 12:01N 49°31' W 000°21'1020.8
2018-Aug-12 11:30N 49°40' W 000°28'1121.2
2018-Aug-12 11:00N 49°51' W 000°33'1121.4
2018-Aug-12 10:31N 50°01' W 000°38'1121.2
2018-Aug-12 10:00N 50°11' W 000°43'1020.8
2018-Aug-12 09:31N 50°20' W 000°49'1020.8
2018-Aug-12 09:01N 50°30' W 000°54'1020.3
2018-Aug-12 08:31N 50°40' W 000°58'917.2
2018-Aug-12 08:00N 50°47' W 001°06'2 3.3
2018-Aug-12 07:30N 50°49' W 001°06'0 0.0
2018-Aug-12 07:00N 50°49' W 001°06'0 0.0
2018-Aug-12 06:30N 50°49' W 001°06'0 0.0
2018-Aug-12 06:00N 50°49' W 001°06'0 0.2
2018-Aug-12 05:30N 50°49' W 001°06'4 8.7
2018-Aug-12 05:01N 50°44' W 001°04'612.4
2018-Aug-12 04:30N 50°39' W 000°59'611.2
2018-Aug-12 04:00N 50°34' W 000°55'611.3
2018-Aug-12 03:30N 50°29' W 000°54'611.3
2018-Aug-12 03:00N 50°23' W 000°51'612.0
2018-Aug-12 02:30N 50°18' W 000°46'612.2
2018-Aug-12 02:00N 50°12' W 000°43'612.2
2018-Aug-12 01:30N 50°07' W 000°40'612.4
2018-Aug-12 01:00N 50°01' W 000°37'612.4
2018-Aug-12 00:30N 49°55' W 000°34'612.4
2018-Aug-12 00:00N 49°49' W 000°31'612.1
2018-Aug-11 23:30N 49°43' W 000°28'611.9
2018-Aug-11 23:00N 49°38' W 000°25'611.4
2018-Aug-11 22:30N 49°33' W 000°20'611.4
2018-Aug-11 22:00N 49°28' W 000°17'611.6
2018-Aug-11 21:30N 49°22' W 000°15'5 9.3
2018-Aug-11 21:00N 49°17' W 000°15'0 0.0
2018-Aug-11 20:30N 49°17' W 000°15'0 0.0
2018-Aug-11 20:00N 49°17' W 000°15'0 0.0
2018-Aug-11 19:30N 49°17' W 000°15'1 2.5
2018-Aug-11 19:01N 49°19' W 000°15'917.5
2018-Aug-11 18:30N 49°27' W 000°18'918.3
2018-Aug-11 18:01N 49°35' W 000°24'1019.5
2018-Aug-11 17:30N 49°44' W 000°30'1019.6
2018-Aug-11 17:01N 49°53' W 000°37'1020.3
2018-Aug-11 16:31N 50°02' W 000°43'1020.7
2018-Aug-11 16:00N 50°12' W 000°47'1421.1
2018-Aug-11 15:21N 50°26' W 000°52'719.2
2018-Aug-11 15:00N 50°32' W 000°55'918.9
2018-Aug-11 14:31N 50°41' W 000°58'816.2
2018-Aug-11 14:00N 50°47' W 001°07'1 2.6
2018-Aug-11 13:30N 50°49' W 001°06'0 0.0
2018-Aug-11 13:00N 50°49' W 001°06'0 0.0
2018-Aug-11 12:30N 50°49' W 001°06'0 0.6
2018-Aug-11 12:00N 50°49' W 001°06'612.8
2018-Aug-11 11:31N 50°43' W 001°02'1020.1
2018-Aug-11 11:01N 50°33' W 000°57'1221.0
2018-Aug-11 10:25N 50°21' W 000°52'921.5
2018-Aug-11 10:00N 50°13' W 000°48'1020.9
2018-Aug-11 09:31N 50°03' W 000°43'1020.5
2018-Aug-11 09:00N 49°53' W 000°38'1020.5
2018-Aug-11 08:30N 49°44' W 000°32'1020.5
2018-Aug-11 08:01N 49°34' W 000°26'1020.1
2018-Aug-11 07:31N 49°25' W 000°19'816.8
2018-Aug-11 07:00N 49°17' W 000°15'0 0.2
2018-Aug-11 06:30N 49°17' W 000°15'0 0.0
2018-Aug-11 06:00N 49°17' W 000°15'0 0.0
2018-Aug-11 05:30N 49°17' W 000°15'0 0.0
2018-Aug-11 05:00N 49°17' W 000°15'1 1.1
2018-Aug-11 04:30N 49°18' W 000°15'713.6
2018-Aug-11 04:00N 49°25' W 000°17'816.0
2018-Aug-11 03:30N 49°32' W 000°22'815.7
2018-Aug-11 03:00N 49°39' W 000°27'815.6
2018-Aug-11 02:30N 49°46' W 000°31'715.0
2018-Aug-11 02:00N 49°53' W 000°35'714.7
2018-Aug-11 01:30N 50°00' W 000°39'814.9
2018-Aug-11 01:00N 50°07' W 000°43'1715.0
2018-Aug-10 23:53N 50°23' W 000°52'615.4
2018-Aug-10 23:30N 50°29' W 000°54'815.1
2018-Aug-10 23:00N 50°36' W 000°58'815.3
2018-Aug-10 22:30N 50°43' W 001°02'612.2
2018-Aug-10 22:00N 50°48' W 001°07'1 1.5
2018-Aug-10 21:31N 50°49' W 001°06'0 0.0
2018-Aug-10 21:00N 50°49' W 001°06'0 0.0
2018-Aug-10 20:30N 50°49' W 001°06'0 1.0
2018-Aug-10 20:01N 50°49' W 001°07'611.7
2018-Aug-10 19:30N 50°44' W 001°02'919.0
2018-Aug-10 19:00N 50°35' W 000°56'1019.0
2018-Aug-10 18:30N 50°26' W 000°50'1019.4
2018-Aug-10 17:59N 50°16' W 000°46'919.0
2018-Aug-10 17:30N 50°08' W 000°40'918.9
2018-Aug-10 17:00N 49°59' W 000°35'1019.4
2018-Aug-10 16:30N 49°50' W 000°30'1019.6
2018-Aug-10 16:00N 49°41' W 000°26'1020.1
2018-Aug-10 15:30N 49°31' W 000°20'1020.4
2018-Aug-10 15:00N 49°22' W 000°15'4 8.5
2018-Aug-10 14:30N 49°17' W 000°15'0 0.0
2018-Aug-10 14:01N 49°17' W 000°15'0 0.0
2018-Aug-10 13:31N 49°17' W 000°15'0 0.0
2018-Aug-10 13:01N 49°17' W 000°15'3 5.8
2018-Aug-10 12:31N 49°20' W 000°14'918.6
2018-Aug-10 12:01N 49°29' W 000°18'1019.4
2018-Aug-10 11:31N 49°38' W 000°24'1019.4
2018-Aug-10 11:00N 49°47' W 000°30'1019.7
2018-Aug-10 10:29N 49°57' W 000°36'920.0
2018-Aug-10 10:00N 50°05' W 000°42'2120.3
2018-Aug-10 08:59N 50°25' W 000°52'1020.5
2018-Aug-10 08:31N 50°34' W 000°57'918.3
2018-Aug-10 08:01N 50°43' W 001°02'612.8
2018-Aug-10 07:30N 50°49' W 001°06'0 0.5
2018-Aug-10 07:00N 50°49' W 001°06'0 0.0
2018-Aug-10 06:30N 50°49' W 001°06'0 0.0
2018-Aug-10 05:59N 50°49' W 001°06'0 0.1
2018-Aug-10 05:30N 50°49' W 001°06'5 9.8
2018-Aug-10 05:01N 50°44' W 001°04'612.2
2018-Aug-10 04:31N 50°39' W 000°58'611.3
2018-Aug-10 04:01N 50°34' W 000°55'611.3
2018-Aug-10 03:31N 50°28' W 000°52'1511.2
2018-Aug-10 02:12N 50°15' W 000°45'211.7
2018-Aug-10 02:01N 50°12' W 000°44'611.8
2018-Aug-10 01:30N 50°07' W 000°40'612.1
2018-Aug-10 01:00N 50°01' W 000°37'612.3
2018-Aug-10 00:30N 49°56' W 000°34'712.8
2018-Aug-10 00:00N 49°50' W 000°29'612.6
2018-Aug-09 23:30N 49°44' W 000°25'612.0
2018-Aug-09 23:01N 49°38' W 000°23'611.8
2018-Aug-09 22:30N 49°32' W 000°21'611.7
2018-Aug-09 22:00N 49°27' W 000°18'611.8
2018-Aug-09 21:31N 49°21' W 000°15'4 7.8
2018-Aug-09 20:59N 49°17' W 000°15'0 0.0
2018-Aug-09 20:30N 49°17' W 000°15'0 0.0
2018-Aug-09 20:00N 49°17' W 000°15'0 0.0
2018-Aug-09 19:30N 49°17' W 000°15'4 8.9
2018-Aug-09 19:00N 49°22' W 000°14'917.5
2018-Aug-09 18:30N 49°30' W 000°18'917.5
2018-Aug-09 18:00N 49°38' W 000°23'917.7
2018-Aug-09 17:30N 49°47' W 000°26'1019.3
2018-Aug-09 17:00N 49°56' W 000°30'1020.0
2018-Aug-09 16:30N 50°06' W 000°36'1919.8
2018-Aug-09 15:34N 50°23' W 000°47'219.5
2018-Aug-09 15:29N 50°24' W 000°48'919.4
2018-Aug-09 15:00N 50°33' W 000°54'918.4
2018-Aug-09 14:30N 50°42' W 000°58'816.3
2018-Aug-09 14:00N 50°48' W 001°07'1 2.4
2018-Aug-09 13:30N 50°49' W 001°06'0 0.0
2018-Aug-09 13:00N 50°49' W 001°06'0 0.0
2018-Aug-09 12:30N 50°49' W 001°06'0 0.2
2018-Aug-09 12:00N 50°49' W 001°06'5 9.6
2018-Aug-09 11:30N 50°44' W 001°04'918.6
2018-Aug-09 11:00N 50°36' W 000°57'1121.0
2018-Aug-09 10:30N 50°26' W 000°50'1021.0
2018-Aug-09 10:00N 50°17' W 000°43'1121.1
2018-Aug-09 09:30N 50°07' W 000°37'1020.7
2018-Aug-09 09:00N 49°57' W 000°32'1020.5
2018-Aug-09 08:30N 49°47' W 000°27'1020.3
2018-Aug-09 08:00N 49°38' W 000°23'1019.8
2018-Aug-09 07:30N 49°28' W 000°19'1019.3
2018-Aug-09 07:00N 49°19' W 000°15'2 3.0
2018-Aug-09 06:30N 49°17' W 000°15'0 0.0
2018-Aug-09 06:00N 49°17' W 000°15'0 0.0
2018-Aug-09 05:30N 49°17' W 000°15'0 0.0
2018-Aug-09 05:00N 49°17' W 000°15'0 0.1
2018-Aug-09 04:30N 49°17' W 000°15'612.4
2018-Aug-09 04:00N 49°24' W 000°16'816.2
2018-Aug-09 03:31N 49°31' W 000°21'816.1
2018-Aug-09 03:00N 49°38' W 000°25'816.1
2018-Aug-09 02:31N 49°46' W 000°29'714.6
2018-Aug-09 02:00N 49°53' W 000°34'510.9
2018-Aug-09 01:30N 49°57' W 000°38'610.7
2018-Aug-09 00:59N 50°02' W 000°42'510.6
2018-Aug-09 00:30N 50°07' W 000°45'510.6
2018-Aug-09 00:00N 50°12' W 000°48'511.1
2018-Aug-08 23:30N 50°17' W 000°50'612.3
2018-Aug-08 23:00N 50°23' W 000°52'815.5
2018-Aug-08 22:31N 50°31' W 000°55'815.7
2018-Aug-08 22:00N 50°38' W 000°59'714.1
2018-Aug-08 21:30N 50°44' W 001°05'4 8.6
2018-Aug-08 21:00N 50°49' W 001°06'0 0.0
2018-Aug-08 20:30N 50°49' W 001°06'0 0.0
2018-Aug-08 20:00N 50°49' W 001°06'0 0.0
2018-Aug-08 19:30N 50°49' W 001°06'0 0.0
2018-Aug-08 18:59N 50°49' W 001°06'0 0.0
2018-Aug-08 18:30N 50°49' W 001°06'0 0.1
2018-Aug-08 18:00N 50°49' W 001°06'4 7.6
2018-Aug-08 17:30N 50°45' W 001°05'815.4
2018-Aug-08 17:01N 50°38' W 000°58'815.7
2018-Aug-08 16:30N 50°31' W 000°53'816.6
2018-Aug-08 16:00N 50°24' W 000°48'918.8
2018-Aug-08 15:30N 50°15' W 000°43'918.8
2018-Aug-08 15:00N 50°06' W 000°38'1019.2
2018-Aug-08 14:31N 49°57' W 000°34'1019.2
2018-Aug-08 14:01N 49°48' W 000°30'1019.1
2018-Aug-08 13:30N 49°38' W 000°25'918.8
2018-Aug-08 13:01N 49°30' W 000°20'816.7
2018-Aug-08 12:31N 49°22' W 000°15'5 9.1
2018-Aug-08 12:00N 49°17' W 000°15'0 0.0
2018-Aug-08 11:30N 49°17' W 000°15'0 0.0
2018-Aug-08 11:00N 49°17' W 000°15'0 0.0
2018-Aug-08 10:30N 49°17' W 000°15'0 0.0
2018-Aug-08 10:00N 49°17' W 000°15'0 0.0
2018-Aug-08 09:30N 49°17' W 000°15'0 0.0
2018-Aug-08 09:00N 49°17' W 000°15'0 0.0
2018-Aug-08 08:30N 49°17' W 000°15'0 0.0
2018-Aug-08 08:00N 49°17' W 000°15'0 0.0
2018-Aug-08 07:30N 49°17' W 000°15'0 0.0
2018-Aug-08 07:00N 49°17' W 000°15'0 0.0
2018-Aug-08 06:30N 49°17' W 000°15'0 0.0
2018-Aug-08 06:00N 49°17' W 000°15'0 0.0
2018-Aug-08 05:30N 49°17' W 000°15'3 5.1
2018-Aug-08 05:01N 49°20' W 000°14'816.6
2018-Aug-08 04:30N 49°28' W 000°18'714.4
2018-Aug-08 04:00N 49°35' W 000°22'713.1
2018-Aug-08 03:30N 49°41' W 000°25'612.8
2018-Aug-08 03:00N 49°47' W 000°29'612.6
2018-Aug-08 02:30N 49°53' W 000°33'612.1
2018-Aug-08 02:00N 49°58' W 000°37'611.9
2018-Aug-08 01:30N 50°04' W 000°40'611.7
2018-Aug-08 01:00N 50°09' W 000°44'  
Track history (hours):
 
Tides and Currents Weather Stations Pressure Air Temp Water Temp Dewpoint Dewpoint Depression Visibility Wind Speed Wind Dir Waves Ship Positions

Mont Saint Michel

Last reported at 2018-Aug-18 00:10 UTC. Time now 2018-Aug-18 00:48 UTC.
Position N 50°22' W 000°53'.

Length 173 m; beam 29 m.

Type: Ship. MMSI: 227023100.

Date/timePositionNaut miles runAvg speedWind from/ knotsBaromVisibWave heightAir tempDewpointWater temp
2018-Aug-18 00:10N 50°22' W 000°53'215.6
2018-Aug-18 00:00N 50°24' W 000°53'815.8
2018-Aug-17 23:30N 50°32' W 000°56'815.2
2018-Aug-17 23:00N 50°39' W 000°58'5 9.7
2018-Aug-17 22:31N 50°44' W 001°02'611.1
2018-Aug-17 22:00N 50°48' W 001°07'1 1.4
2018-Aug-17 21:30N 50°49' W 001°06'0 0.0
2018-Aug-17 21:00N 50°49' W 001°06'0 0.0
2018-Aug-17 20:30N 50°49' W 001°06'0 0.6
2018-Aug-17 20:00N 50°49' W 001°06'611.2
2018-Aug-17 19:30N 50°44' W 001°02'815.7
2018-Aug-17 19:00N 50°36' W 000°57'1019.6
2018-Aug-17 18:30N 50°27' W 000°52'919.1
2018-Aug-17 18:01N 50°19' W 000°46'1020.0
2018-Aug-17 17:31N 50°09' W 000°39'1019.9
2018-Aug-17 17:01N 50°00' W 000°33'1019.7
2018-Aug-17 16:31N 49°51' W 000°28'1019.4
2018-Aug-17 16:01N 49°42' W 000°23'1019.2
2018-Aug-17 15:30N 49°33' W 000°18'918.6
2018-Aug-17 15:01N 49°24' W 000°15'6 6.5
2018-Aug-17 14:00N 49°17' W 000°15'0 0.0
2018-Aug-17 13:30N 49°17' W 000°15'0 0.0
2018-Aug-17 13:00N 49°17' W 000°15'3 7.0
2018-Aug-17 12:30N 49°21' W 000°14'1019.7
2018-Aug-17 12:00N 49°30' W 000°18'1019.7
2018-Aug-17 11:30N 49°39' W 000°25'1020.0
2018-Aug-17 11:00N 49°48' W 000°33'1019.8
2018-Aug-17 10:30N 49°56' W 000°40'1019.3
2018-Aug-17 10:00N 50°05' W 000°47'1820.3
2018-Aug-17 09:07N 50°23' W 000°53'320.6
2018-Aug-17 08:58N 50°26' W 000°54'920.0
2018-Aug-17 08:30N 50°35' W 000°58'917.6
2018-Aug-17 08:00N 50°43' W 001°01'612.6
2018-Aug-17 07:30N 50°49' W 001°06'0 0.3
2018-Aug-17 07:00N 50°49' W 001°06'0 0.0
2018-Aug-17 06:30N 50°49' W 001°06'0 0.0
2018-Aug-17 06:00N 50°49' W 001°06'0 0.4
2018-Aug-17 05:31N 50°49' W 001°06'4 8.6
2018-Aug-17 05:00N 50°45' W 001°05'815.9
2018-Aug-17 04:30N 50°38' W 000°58'815.8
2018-Aug-17 04:00N 50°30' W 000°54'1813.2
2018-Aug-17 02:40N 50°14' W 000°43'211.4
2018-Aug-17 02:31N 50°12' W 000°42'611.3
2018-Aug-17 02:00N 50°07' W 000°39'611.2
2018-Aug-17 01:31N 50°02' W 000°36'611.0
2018-Aug-17 01:00N 49°56' W 000°34'511.1
2018-Aug-17 00:31N 49°51' W 000°32'611.4
2018-Aug-16 23:59N 49°45' W 000°30'510.5
2018-Aug-16 23:30N 49°41' W 000°26'511.0
2018-Aug-16 23:00N 49°36' W 000°22'510.7
2018-Aug-16 22:31N 49°31' W 000°20'510.4
2018-Aug-16 22:00N 49°26' W 000°18'510.3
2018-Aug-16 21:30N 49°21' W 000°15'3 7.0
2018-Aug-16 21:00N 49°17' W 000°15'0 0.0
2018-Aug-16 20:30N 49°17' W 000°15'0 0.0
2018-Aug-16 20:00N 49°17' W 000°15'0 0.0
2018-Aug-16 19:31N 49°17' W 000°15'4 7.3
2018-Aug-16 19:00N 49°21' W 000°14'918.7
2018-Aug-16 18:31N 49°30' W 000°20'918.1
2018-Aug-16 18:00N 49°38' W 000°24'918.2
2018-Aug-16 17:31N 49°47' W 000°27'918.1
2018-Aug-16 17:00N 49°56' W 000°31'918.2
2018-Aug-16 16:30N 50°05' W 000°36'918.9
2018-Aug-16 16:00N 50°13' W 000°41'1020.5
2018-Aug-16 15:30N 50°23' W 000°48'1020.8
2018-Aug-16 15:00N 50°32' W 000°54'1019.6
2018-Aug-16 14:30N 50°41' W 001°00'815.8
2018-Aug-16 14:00N 50°48' W 001°07'1 2.1
2018-Aug-16 13:30N 50°49' W 001°06'0 0.0
2018-Aug-16 13:00N 50°49' W 001°06'0 0.0
2018-Aug-16 12:30N 50°49' W 001°06'0 0.9
2018-Aug-16 12:00N 50°49' W 001°07'612.5
2018-Aug-16 11:30N 50°43' W 001°01'816.5
2018-Aug-16 11:00N 50°36' W 000°57'816.2
2018-Aug-16 10:30N 50°29' W 000°49'1018.2
2018-Aug-16 09:56N 50°19' W 000°45'919.9
2018-Aug-16 09:30N 50°11' W 000°41'1020.1
2018-Aug-16 09:00N 50°01' W 000°36'1020.3
2018-Aug-16 08:30N 49°51' W 000°32'1020.3
2018-Aug-16 08:00N 49°42' W 000°27'1020.5
2018-Aug-16 07:31N 49°32' W 000°21'1020.3
2018-Aug-16 07:01N 49°23' W 000°16'510.8
2018-Aug-16 06:30N 49°17' W 000°15'0 0.0
2018-Aug-16 06:01N 49°17' W 000°15'0 0.0
2018-Aug-16 05:30N 49°17' W 000°15'0 0.0
2018-Aug-16 05:00N 49°17' W 000°15'0 0.2
2018-Aug-16 04:30N 49°17' W 000°15'612.6
2018-Aug-16 04:00N 49°24' W 000°16'510.7
2018-Aug-16 03:30N 49°29' W 000°19'511.0
2018-Aug-16 03:00N 49°34' W 000°22'611.1
2018-Aug-16 02:30N 49°39' W 000°25'713.4
2018-Aug-16 02:01N 49°46' W 000°27'714.6
2018-Aug-16 01:30N 49°53' W 000°31'714.7
2018-Aug-16 01:00N 49°60' W 000°33'714.7
2018-Aug-16 00:30N 50°07' W 000°37'815.3
2018-Aug-15 23:58N 50°14' W 000°43'715.5
2018-Aug-15 23:30N 50°21' W 000°47'714.8
2018-Aug-15 23:00N 50°28' W 000°51'815.2
2018-Aug-15 22:30N 50°35' W 000°56'714.1
2018-Aug-15 22:01N 50°41' W 000°58'714.1
2018-Aug-15 21:30N 50°47' W 001°06'2 4.3
2018-Aug-15 21:00N 50°49' W 001°06'0 0.0
2018-Aug-15 20:30N 50°49' W 001°06'0 0.0
2018-Aug-15 20:00N 50°49' W 001°06'0 0.0
2018-Aug-15 19:30N 50°49' W 001°06'0 0.0
2018-Aug-15 19:00N 50°49' W 001°06'0 0.0
2018-Aug-15 18:30N 50°49' W 001°06'1 2.0
2018-Aug-15 18:00N 50°48' W 001°07'612.9
2018-Aug-15 17:30N 50°43' W 001°01'815.9
2018-Aug-15 17:00N 50°35' W 000°57'917.2
2018-Aug-15 16:30N 50°27' W 000°52'816.8
2018-Aug-15 16:00N 50°20' W 000°46'917.7
2018-Aug-15 15:30N 50°12' W 000°38'917.5
2018-Aug-15 15:00N 50°04' W 000°32'917.4
2018-Aug-15 14:30N 49°57' W 000°26'917.1
2018-Aug-15 14:00N 49°48' W 000°23'816.9
2018-Aug-15 13:30N 49°40' W 000°21'816.9
2018-Aug-15 13:00N 49°32' W 000°19'816.5
2018-Aug-15 12:30N 49°24' W 000°16'612.7
2018-Aug-15 12:00N 49°17' W 000°15'0 0.0
2018-Aug-15 11:30N 49°17' W 000°15'0 0.0
2018-Aug-15 11:00N 49°17' W 000°15'0 0.0
2018-Aug-15 10:30N 49°17' W 000°15'0 0.0
2018-Aug-15 10:00N 49°17' W 000°15'0 0.0
2018-Aug-15 09:30N 49°17' W 000°15'0 0.0
2018-Aug-15 09:00N 49°17' W 000°15'0 0.0
2018-Aug-15 08:29N 49°17' W 000°15'0 0.0
2018-Aug-15 08:00N 49°17' W 000°15'0 0.0
2018-Aug-15 07:30N 49°17' W 000°15'0 0.0
2018-Aug-15 07:00N 49°17' W 000°15'0 0.0
2018-Aug-15 06:30N 49°17' W 000°15'0 0.0
2018-Aug-15 06:00N 49°17' W 000°15'0 0.0
2018-Aug-15 05:30N 49°17' W 000°15'3 5.8
2018-Aug-15 05:00N 49°20' W 000°14'815.3
2018-Aug-15 04:30N 49°28' W 000°16'815.4
2018-Aug-15 04:00N 49°35' W 000°22'815.4
2018-Aug-15 03:30N 49°41' W 000°27'713.5
2018-Aug-15 03:00N 49°48' W 000°31'611.9
2018-Aug-15 02:30N 49°54' W 000°33'612.3
2018-Aug-15 02:00N 49°59' W 000°36'612.5
2018-Aug-15 01:30N 50°05' W 000°39'714.4
2018-Aug-15 01:00N 50°12' W 000°44'1315.7
2018-Aug-15 00:11N 50°23' W 000°53'315.5
2018-Aug-15 00:00N 50°26' W 000°54'815.4
2018-Aug-14 23:30N 50°34' W 000°56'815.3
2018-Aug-14 23:00N 50°41' W 000°58'713.3
2018-Aug-14 22:30N 50°46' W 001°05'3 5.4
2018-Aug-14 22:00N 50°49' W 001°06'0 0.0
2018-Aug-14 21:31N 50°49' W 001°06'0 0.0
2018-Aug-14 21:00N 50°49' W 001°06'0 0.0
2018-Aug-14 20:30N 50°49' W 001°06'1 1.0
2018-Aug-14 20:00N 50°49' W 001°07'612.1
2018-Aug-14 19:31N 50°43' W 001°02'816.4
2018-Aug-14 19:00N 50°36' W 000°58'1018.7
2018-Aug-14 18:30N 50°26' W 000°54'918.5
2018-Aug-14 18:00N 50°18' W 000°49'1019.2
2018-Aug-14 17:31N 50°09' W 000°42'1019.5
2018-Aug-14 17:01N 50°00' W 000°36'1019.6
2018-Aug-14 16:30N 49°51' W 000°31'1019.7
2018-Aug-14 16:01N 49°42' W 000°26'1020.1
2018-Aug-14 15:31N 49°33' W 000°19'1019.7
2018-Aug-14 15:01N 49°23' W 000°15'612.2
2018-Aug-14 14:30N 49°17' W 000°15'0 0.0
2018-Aug-14 14:00N 49°17' W 000°15'0 0.0
2018-Aug-14 13:30N 49°17' W 000°15'0 0.0
2018-Aug-14 13:00N 49°17' W 000°15'3 5.8
2018-Aug-14 12:30N 49°20' W 000°14'917.7
2018-Aug-14 12:00N 49°29' W 000°17'917.4
2018-Aug-14 11:30N 49°37' W 000°21'918.0
2018-Aug-14 11:00N 49°45' W 000°27'919.0
2018-Aug-14 10:30N 49°53' W 000°36'1020.7
2018-Aug-14 10:00N 50°02' W 000°43'1020.1
2018-Aug-14 09:30N 50°12' W 000°47'1820.0
2018-Aug-14 08:36N 50°29' W 000°55'219.8
2018-Aug-14 08:30N 50°31' W 000°56'919.0
2018-Aug-14 08:00N 50°40' W 000°58'816.5
2018-Aug-14 07:30N 50°47' W 001°06'2 3.7
2018-Aug-14 07:00N 50°49' W 001°06'0 0.0
2018-Aug-14 06:30N 50°49' W 001°06'0 0.0
2018-Aug-14 06:00N 50°49' W 001°06'0 0.2
2018-Aug-14 05:31N 50°49' W 001°06'4 8.6
2018-Aug-14 05:00N 50°44' W 001°04'714.3
2018-Aug-14 04:30N 50°38' W 000°58'816.1
2018-Aug-14 04:00N 50°30' W 000°57'814.5
2018-Aug-14 03:28N 50°23' W 000°55'715.2
2018-Aug-14 03:00N 50°17' W 000°49'815.5
2018-Aug-14 02:30N 50°10' W 000°44'815.5
2018-Aug-14 02:00N 50°03' W 000°39'612.1
2018-Aug-14 01:30N 49°57' W 000°36'510.6
2018-Aug-14 01:00N 49°52' W 000°32'510.3
2018-Aug-14 00:30N 49°48' W 000°29'510.2
2018-Aug-14 00:00N 49°43' W 000°26'510.0
2018-Aug-13 23:30N 49°38' W 000°22'510.1
2018-Aug-13 23:01N 49°34' W 000°19'510.5
2018-Aug-13 22:31N 49°29' W 000°16'510.7
2018-Aug-13 22:01N 49°24' W 000°15'611.4
2018-Aug-13 21:30N 49°18' W 000°15'1 1.2
2018-Aug-13 21:00N 49°17' W 000°15'0 0.0
2018-Aug-13 20:30N 49°17' W 000°15'0 0.0
2018-Aug-13 20:00N 49°17' W 000°15'0 0.0
2018-Aug-13 19:30N 49°17' W 000°15'3 5.4
2018-Aug-13 19:00N 49°20' W 000°14'917.6
2018-Aug-13 18:30N 49°28' W 000°19'918.4
2018-Aug-13 18:00N 49°37' W 000°25'918.0
2018-Aug-13 17:30N 49°45' W 000°30'917.9
2018-Aug-13 17:00N 49°53' W 000°35'917.5
2018-Aug-13 16:30N 50°02' W 000°40'918.2
2018-Aug-13 16:00N 50°10' W 000°44'1019.9
2018-Aug-13 15:30N 50°20' W 000°49'1020.4
2018-Aug-13 15:00N 50°29' W 000°54'1020.1
2018-Aug-13 14:30N 50°39' W 000°59'918.3
2018-Aug-13 14:01N 50°47' W 001°06'2 3.7
2018-Aug-13 13:31N 50°49' W 001°06'0 0.0
2018-Aug-13 13:01N 50°49' W 001°06'0 0.0
2018-Aug-13 12:30N 50°49' W 001°06'0 0.7
2018-Aug-13 12:01N 50°49' W 001°06'612.7
2018-Aug-13 11:30N 50°43' W 001°02'1020.3
2018-Aug-13 11:00N 50°34' W 000°56'2220.7
2018-Aug-13 09:57N 50°13' W 000°46'920.4
2018-Aug-13 09:30N 50°04' W 000°42'1020.0
2018-Aug-13 09:00N 49°55' W 000°37'1019.6
2018-Aug-13 08:30N 49°45' W 000°32'1019.4
2018-Aug-13 08:00N 49°36' W 000°26'1019.4
2018-Aug-13 07:30N 49°28' W 000°19'918.2
2018-Aug-13 07:00N 49°19' W 000°15'2 3.6
2018-Aug-13 06:30N 49°17' W 000°15'0 0.0
2018-Aug-13 06:00N 49°17' W 000°15'0 0.0
2018-Aug-13 05:30N 49°17' W 000°15'0 0.0
2018-Aug-13 05:00N 49°17' W 000°15'0 0.5
2018-Aug-13 04:30N 49°18' W 000°15'713.1
2018-Aug-13 04:00N 49°24' W 000°17'815.9
2018-Aug-13 03:30N 49°31' W 000°22'816.0
2018-Aug-13 03:00N 49°38' W 000°27'815.6
2018-Aug-13 02:30N 49°46' W 000°32'715.0
2018-Aug-13 02:00N 49°53' W 000°36'815.2
2018-Aug-13 01:30N 50°00' W 000°38'1215.4
2018-Aug-13 00:45N 50°11' W 000°43'515.6
2018-Aug-13 00:26N 50°16' W 000°45'716.0
2018-Aug-12 23:59N 50°23' W 000°49'816.5
2018-Aug-12 23:30N 50°30' W 000°52'816.3
2018-Aug-12 23:00N 50°37' W 000°59'714.3
2018-Aug-12 22:31N 50°44' W 001°04'510.1
2018-Aug-12 22:00N 50°49' W 001°06'0 0.4
2018-Aug-12 21:30N 50°49' W 001°06'0 0.0
2018-Aug-12 21:00N 50°49' W 001°06'0 0.0
2018-Aug-12 20:30N 50°49' W 001°06'2 3.7
2018-Aug-12 20:01N 50°47' W 001°06'917.2
2018-Aug-12 19:31N 50°39' W 001°01'1121.9
2018-Aug-12 19:00N 50°28' W 001°03'1020.9
2018-Aug-12 18:31N 50°18' W 001°02'1121.3
2018-Aug-12 18:00N 50°08' W 000°56'1121.8
2018-Aug-12 17:31N 49°58' W 000°49'1122.2
2018-Aug-12 17:01N 49°48' W 000°40'1122.2
2018-Aug-12 16:30N 49°38' W 000°31'1122.1
2018-Aug-12 16:00N 49°29' W 000°23'1020.9
2018-Aug-12 15:31N 49°20' W 000°15'3 5.3
2018-Aug-12 15:00N 49°17' W 000°15'0 0.0
2018-Aug-12 14:30N 49°17' W 000°15'0 0.0
2018-Aug-12 14:00N 49°17' W 000°15'0 0.0
2018-Aug-12 13:30N 49°17' W 000°15'0 0.0
2018-Aug-12 13:00N 49°17' W 000°15'4 8.8
2018-Aug-12 12:31N 49°22' W 000°14'1020.3
2018-Aug-12 12:01N 49°31' W 000°21'1020.8
2018-Aug-12 11:30N 49°40' W 000°28'1121.2
2018-Aug-12 11:00N 49°51' W 000°33'1121.4
2018-Aug-12 10:31N 50°01' W 000°38'1121.2
2018-Aug-12 10:00N 50°11' W 000°43'1020.8
2018-Aug-12 09:31N 50°20' W 000°49'1020.8
2018-Aug-12 09:01N 50°30' W 000°54'1020.3
2018-Aug-12 08:31N 50°40' W 000°58'917.2
2018-Aug-12 08:00N 50°47' W 001°06'2 3.3
2018-Aug-12 07:30N 50°49' W 001°06'0 0.0
2018-Aug-12 07:00N 50°49' W 001°06'0 0.0
2018-Aug-12 06:30N 50°49' W 001°06'0 0.0
2018-Aug-12 06:00N 50°49' W 001°06'0 0.2
2018-Aug-12 05:30N 50°49' W 001°06'4 8.7
2018-Aug-12 05:01N 50°44' W 001°04'612.4
2018-Aug-12 04:30N 50°39' W 000°59'611.2
2018-Aug-12 04:00N 50°34' W 000°55'611.3
2018-Aug-12 03:30N 50°29' W 000°54'611.3
2018-Aug-12 03:00N 50°23' W 000°51'612.0
2018-Aug-12 02:30N 50°18' W 000°46'612.2
2018-Aug-12 02:00N 50°12' W 000°43'612.2
2018-Aug-12 01:30N 50°07' W 000°40'612.4
2018-Aug-12 01:00N 50°01' W 000°37'612.4
2018-Aug-12 00:30N 49°55' W 000°34'612.4
2018-Aug-12 00:00N 49°49' W 000°31'612.1
2018-Aug-11 23:30N 49°43' W 000°28'611.9
2018-Aug-11 23:00N 49°38' W 000°25'611.4
2018-Aug-11 22:30N 49°33' W 000°20'611.4
2018-Aug-11 22:00N 49°28' W 000°17'611.6
2018-Aug-11 21:30N 49°22' W 000°15'5 9.3
2018-Aug-11 21:00N 49°17' W 000°15'0 0.0
2018-Aug-11 20:30N 49°17' W 000°15'0 0.0
2018-Aug-11 20:00N 49°17' W 000°15'0 0.0
2018-Aug-11 19:30N 49°17' W 000°15'1 2.5
2018-Aug-11 19:01N 49°19' W 000°15'917.5
2018-Aug-11 18:30N 49°27' W 000°18'918.3
2018-Aug-11 18:01N 49°35' W 000°24'1019.5
2018-Aug-11 17:30N 49°44' W 000°30'1019.6
2018-Aug-11 17:01N 49°53' W 000°37'1020.3
2018-Aug-11 16:31N 50°02' W 000°43'1020.7
2018-Aug-11 16:00N 50°12' W 000°47'1421.1
2018-Aug-11 15:21N 50°26' W 000°52'719.2
2018-Aug-11 15:00N 50°32' W 000°55'918.9
2018-Aug-11 14:31N 50°41' W 000°58'816.2
2018-Aug-11 14:00N 50°47' W 001°07'1 2.6
2018-Aug-11 13:30N 50°49' W 001°06'0 0.0
2018-Aug-11 13:00N 50°49' W 001°06'0 0.0
2018-Aug-11 12:30N 50°49' W 001°06'0 0.6
2018-Aug-11 12:00N 50°49' W 001°06'612.8
2018-Aug-11 11:31N 50°43' W 001°02'1020.1
2018-Aug-11 11:01N 50°33' W 000°57'1221.0
2018-Aug-11 10:25N 50°21' W 000°52'921.5
2018-Aug-11 10:00N 50°13' W 000°48'1020.9
2018-Aug-11 09:31N 50°03' W 000°43'1020.5
2018-Aug-11 09:00N 49°53' W 000°38'1020.5
2018-Aug-11 08:30N 49°44' W 000°32'1020.5
2018-Aug-11 08:01N 49°34' W 000°26'1020.1
2018-Aug-11 07:31N 49°25' W 000°19'816.8
2018-Aug-11 07:00N 49°17' W 000°15'0 0.2
2018-Aug-11 06:30N 49°17' W 000°15'0 0.0
2018-Aug-11 06:00N 49°17' W 000°15'0 0.0
2018-Aug-11 05:30N 49°17' W 000°15'0 0.0
2018-Aug-11 05:00N 49°17' W 000°15'1 1.1
2018-Aug-11 04:30N 49°18' W 000°15'713.6
2018-Aug-11 04:00N 49°25' W 000°17'816.0
2018-Aug-11 03:30N 49°32' W 000°22'815.7
2018-Aug-11 03:00N 49°39' W 000°27'815.6
2018-Aug-11 02:30N 49°46' W 000°31'715.0
2018-Aug-11 02:00N 49°53' W 000°35'714.7
2018-Aug-11 01:30N 50°00' W 000°39'814.9
2018-Aug-11 01:00N 50°07' W 000°43'1715.0
2018-Aug-10 23:53N 50°23' W 000°52'615.4
2018-Aug-10 23:30N 50°29' W 000°54'815.1
2018-Aug-10 23:00N 50°36' W 000°58'815.3
2018-Aug-10 22:30N 50°43' W 001°02'612.2
2018-Aug-10 22:00N 50°48' W 001°07'1 1.5
2018-Aug-10 21:31N 50°49' W 001°06'0 0.0
2018-Aug-10 21:00N 50°49' W 001°06'0 0.0
2018-Aug-10 20:30N 50°49' W 001°06'0 1.0
2018-Aug-10 20:01N 50°49' W 001°07'611.7
2018-Aug-10 19:30N 50°44' W 001°02'919.0
2018-Aug-10 19:00N 50°35' W 000°56'1019.0
2018-Aug-10 18:30N 50°26' W 000°50'1019.4
2018-Aug-10 17:59N 50°16' W 000°46'919.0
2018-Aug-10 17:30N 50°08' W 000°40'918.9
2018-Aug-10 17:00N 49°59' W 000°35'1019.4
2018-Aug-10 16:30N 49°50' W 000°30'1019.6
2018-Aug-10 16:00N 49°41' W 000°26'1020.1
2018-Aug-10 15:30N 49°31' W 000°20'1020.4
2018-Aug-10 15:00N 49°22' W 000°15'4 8.5
2018-Aug-10 14:30N 49°17' W 000°15'0 0.0
2018-Aug-10 14:01N 49°17' W 000°15'0 0.0
2018-Aug-10 13:31N 49°17' W 000°15'0 0.0
2018-Aug-10 13:01N 49°17' W 000°15'3 5.8
2018-Aug-10 12:31N 49°20' W 000°14'918.6
2018-Aug-10 12:01N 49°29' W 000°18'1019.4
2018-Aug-10 11:31N 49°38' W 000°24'1019.4
2018-Aug-10 11:00N 49°47' W 000°30'1019.7
2018-Aug-10 10:29N 49°57' W 000°36'920.0
2018-Aug-10 10:00N 50°05' W 000°42'2120.3
2018-Aug-10 08:59N 50°25' W 000°52'1020.5
2018-Aug-10 08:31N 50°34' W 000°57'918.3
2018-Aug-10 08:01N 50°43' W 001°02'612.8
2018-Aug-10 07:30N 50°49' W 001°06'0 0.5
2018-Aug-10 07:00N 50°49' W 001°06'0 0.0
2018-Aug-10 06:30N 50°49' W 001°06'0 0.0
2018-Aug-10 05:59N 50°49' W 001°06'0 0.1
2018-Aug-10 05:30N 50°49' W 001°06'5 9.8
2018-Aug-10 05:01N 50°44' W 001°04'612.2
2018-Aug-10 04:31N 50°39' W 000°58'611.3
2018-Aug-10 04:01N 50°34' W 000°55'611.3
2018-Aug-10 03:31N 50°28' W 000°52'1511.2
2018-Aug-10 02:12N 50°15' W 000°45'211.7
2018-Aug-10 02:01N 50°12' W 000°44'611.8
2018-Aug-10 01:30N 50°07' W 000°40'612.1
2018-Aug-10 01:00N 50°01' W 000°37'612.3
2018-Aug-10 00:30N 49°56' W 000°34'712.8
2018-Aug-10 00:00N 49°50' W 000°29'612.6
2018-Aug-09 23:30N 49°44' W 000°25'612.0
2018-Aug-09 23:01N 49°38' W 000°23'611.8
2018-Aug-09 22:30N 49°32' W 000°21'611.7
2018-Aug-09 22:00N 49°27' W 000°18'611.8
2018-Aug-09 21:31N 49°21' W 000°15'4 7.8
2018-Aug-09 20:59N 49°17' W 000°15'0 0.0
2018-Aug-09 20:30N 49°17' W 000°15'0 0.0
2018-Aug-09 20:00N 49°17' W 000°15'0 0.0
2018-Aug-09 19:30N 49°17' W 000°15'4 8.9
2018-Aug-09 19:00N 49°22' W 000°14'917.5
2018-Aug-09 18:30N 49°30' W 000°18'917.5
2018-Aug-09 18:00N 49°38' W 000°23'917.7
2018-Aug-09 17:30N 49°47' W 000°26'1019.3
2018-Aug-09 17:00N 49°56' W 000°30'1020.0
2018-Aug-09 16:30N 50°06' W 000°36'1919.8
2018-Aug-09 15:34N 50°23' W 000°47'219.5
2018-Aug-09 15:29N 50°24' W 000°48'919.4
2018-Aug-09 15:00N 50°33' W 000°54'918.4
2018-Aug-09 14:30N 50°42' W 000°58'816.3
2018-Aug-09 14:00N 50°48' W 001°07'1 2.4
2018-Aug-09 13:30N 50°49' W 001°06'0 0.0
2018-Aug-09 13:00N 50°49' W 001°06'0 0.0
2018-Aug-09 12:30N 50°49' W 001°06'0 0.2
2018-Aug-09 12:00N 50°49' W 001°06'5 9.6
2018-Aug-09 11:30N 50°44' W 001°04'918.6
2018-Aug-09 11:00N 50°36' W 000°57'1121.0
2018-Aug-09 10:30N 50°26' W 000°50'1021.0
2018-Aug-09 10:00N 50°17' W 000°43'1121.1
2018-Aug-09 09:30N 50°07' W 000°37'1020.7
2018-Aug-09 09:00N 49°57' W 000°32'1020.5
2018-Aug-09 08:30N 49°47' W 000°27'1020.3
2018-Aug-09 08:00N 49°38' W 000°23'1019.8
2018-Aug-09 07:30N 49°28' W 000°19'1019.3
2018-Aug-09 07:00N 49°19' W 000°15'2 3.0
2018-Aug-09 06:30N 49°17' W 000°15'0 0.0
2018-Aug-09 06:00N 49°17' W 000°15'0 0.0
2018-Aug-09 05:30N 49°17' W 000°15'0 0.0
2018-Aug-09 05:00N 49°17' W 000°15'0 0.1
2018-Aug-09 04:30N 49°17' W 000°15'612.4
2018-Aug-09 04:00N 49°24' W 000°16'816.2
2018-Aug-09 03:31N 49°31' W 000°21'816.1
2018-Aug-09 03:00N 49°38' W 000°25'816.1
2018-Aug-09 02:31N 49°46' W 000°29'714.6
2018-Aug-09 02:00N 49°53' W 000°34'510.9
2018-Aug-09 01:30N 49°57' W 000°38'610.7
2018-Aug-09 00:59N 50°02' W 000°42'510.6
2018-Aug-09 00:30N 50°07' W 000°45'510.6
2018-Aug-09 00:00N 50°12' W 000°48'511.1
2018-Aug-08 23:30N 50°17' W 000°50'612.3
2018-Aug-08 23:00N 50°23' W 000°52'815.5
2018-Aug-08 22:31N 50°31' W 000°55'815.7
2018-Aug-08 22:00N 50°38' W 000°59'714.1
2018-Aug-08 21:30N 50°44' W 001°05'4 8.6
2018-Aug-08 21:00N 50°49' W 001°06'0 0.0
2018-Aug-08 20:30N 50°49' W 001°06'0 0.0
2018-Aug-08 20:00N 50°49' W 001°06'0 0.0
2018-Aug-08 19:30N 50°49' W 001°06'0 0.0
2018-Aug-08 18:59N 50°49' W 001°06'0 0.0
2018-Aug-08 18:30N 50°49' W 001°06'0 0.1
2018-Aug-08 18:00N 50°49' W 001°06'4 7.6
2018-Aug-08 17:30N 50°45' W 001°05'815.4
2018-Aug-08 17:01N 50°38' W 000°58'815.7
2018-Aug-08 16:30N 50°31' W 000°53'816.6
2018-Aug-08 16:00N 50°24' W 000°48'918.8
2018-Aug-08 15:30N 50°15' W 000°43'918.8
2018-Aug-08 15:00N 50°06' W 000°38'1019.2
2018-Aug-08 14:31N 49°57' W 000°34'1019.2
2018-Aug-08 14:01N 49°48' W 000°30'1019.1
2018-Aug-08 13:30N 49°38' W 000°25'918.8
2018-Aug-08 13:01N 49°30' W 000°20'816.7
2018-Aug-08 12:31N 49°22' W 000°15'5 9.1
2018-Aug-08 12:00N 49°17' W 000°15'0 0.0
2018-Aug-08 11:30N 49°17' W 000°15'0 0.0
2018-Aug-08 11:00N 49°17' W 000°15'0 0.0
2018-Aug-08 10:30N 49°17' W 000°15'0 0.0
2018-Aug-08 10:00N 49°17' W 000°15'0 0.0
2018-Aug-08 09:30N 49°17' W 000°15'0 0.0
2018-Aug-08 09:00N 49°17' W 000°15'0 0.0
2018-Aug-08 08:30N 49°17' W 000°15'0 0.0
2018-Aug-08 08:00N 49°17' W 000°15'0 0.0
2018-Aug-08 07:30N 49°17' W 000°15'0 0.0
2018-Aug-08 07:00N 49°17' W 000°15'0 0.0
2018-Aug-08 06:30N 49°17' W 000°15'0 0.0
2018-Aug-08 06:00N 49°17' W 000°15'0 0.0
2018-Aug-08 05:30N 49°17' W 000°15'3 5.1
2018-Aug-08 05:01N 49°20' W 000°14'816.6
2018-Aug-08 04:30N 49°28' W 000°18'714.4
2018-Aug-08 04:00N 49°35' W 000°22'713.1
2018-Aug-08 03:30N 49°41' W 000°25'612.8
2018-Aug-08 03:00N 49°47' W 000°29'612.6
2018-Aug-08 02:30N 49°53' W 000°33'612.1
2018-Aug-08 02:00N 49°58' W 000°37'611.9
2018-Aug-08 01:30N 50°04' W 000°40'611.7
2018-Aug-08 01:00N 50°09' W 000°44'  

Dump ship's entire track history